Imperial, California
Current Conditions -  °F | °C
As of 10:53 AM on Tuesday 27 Jan 2015 (Local Time) from KIPL Reporting Station
Overcast Overcast  
Wind Chill: 17°   Ceiling: 3500
Heat Index: 17°   Visibility: 10mi
Dew Point: 12°   Wind: 3mph
Humidity: 72%   Direction: 320°NW
Pressure: 30.23"   Gusts: NA
Location:  32.85°N, 115.57°W
Report Text: KIPL 271853Z AUTO 32003KT 10SM FEW018 OVC035 17/12 A3023 RMK AO2 SLP236 T01720122
Loading
Personal Weather Stations






























Interactive Weather Map New forecast layout! Learn more

10-Day Weather Forecast

Advertisements
Track Severe Weather on mobile